Terminal Aerodrome Forecast
Issued by NWS Sioux Falls, SD

Home | Current Version | Previous Version | Text Only | Print | Product List | Glossary On
Versions: 1 2 3 4 5 6 7 8 9 10 11 12 13 14
000
FTUS43 KFSD 171138
TAFSUX
TAF
KSUX 171138Z 1712/1812 01005KT 4SM BR SCT003 BKN008
     FM171800 01006KT P6SM OVC022
     FM171900 35006KT P6SM OVC040
     FM180100 00000KT P6SM BKN200=

USA.gov is the U.S. government's official web portal to all federal, state and local government web resources and services.